sensor_id;sensor_type;location;lat;lon;timestamp;P1;durP1;ratioP1;P2;durP2;ratioP2
74042;SDS011;62384;53.600;10.040;2023-04-03T00:02:23;5.70;;;1.52;;
74042;SDS011;62384;53.600;10.040;2023-04-03T00:04:49;5.40;;;1.27;;
74042;SDS011;62384;53.600;10.040;2023-04-03T00:07:14;3.90;;;2.00;;
74042;SDS011;62384;53.600;10.040;2023-04-03T00:09:39;4.75;;;1.58;;
74042;SDS011;62384;53.600;10.040;2023-04-03T00:12:05;7.45;;;1.40;;
74042;SDS011;62384;53.600;10.040;2023-04-03T00:14:30;7.88;;;1.38;;
74042;SDS011;62384;53.600;10.040;2023-04-03T00:16:56;3.85;;;1.35;;
74042;SDS011;62384;53.600;10.040;2023-04-03T00:19:21;2.13;;;1.30;;
74042;SDS011;62384;53.600;10.040;2023-04-03T00:21:46;5.57;;;1.40;;
74042;SDS011;62384;53.600;10.040;2023-04-03T00:24:12;3.33;;;1.35;;
74042;SDS011;62384;53.600;10.040;2023-04-03T00:26:37;6.35;;;2.03;;
74042;SDS011;62384;53.600;10.040;2023-04-03T00:29:02;5.13;;;1.50;;
74042;SDS011;62384;53.600;10.040;2023-04-03T00:31:28;9.48;;;1.85;;
74042;SDS011;62384;53.600;10.040;2023-04-03T00:33:53;11.38;;;1.92;;
74042;SDS011;62384;53.600;10.040;2023-04-03T00:36:18;5.93;;;1.92;;
74042;SDS011;62384;53.600;10.040;2023-04-03T00:38:44;4.82;;;1.85;;
74042;SDS011;62384;53.600;10.040;2023-04-03T00:41:09;5.80;;;1.55;;
74042;SDS011;62384;53.600;10.040;2023-04-03T00:43:34;7.47;;;1.60;;
74042;SDS011;62384;53.600;10.040;2023-04-03T00:46:00;7.30;;;1.52;;
74042;SDS011;62384;53.600;10.040;2023-04-03T00:48:28;3.03;;;1.77;;
74042;SDS011;62384;53.600;10.040;2023-04-03T00:50:55;4.00;;;1.75;;
74042;SDS011;62384;53.600;10.040;2023-04-03T00:53:23;6.53;;;1.77;;
74042;SDS011;62384;53.600;10.040;2023-04-03T00:55:52;11.43;;;1.70;;
74042;SDS011;62384;53.600;10.040;2023-04-03T00:58:20;4.70;;;1.85;;
74042;SDS011;62384;53.600;10.040;2023-04-03T01:00:50;9.00;;;1.52;;
74042;SDS011;62384;53.600;10.040;2023-04-03T01:03:22;4.35;;;1.75;;
74042;SDS011;62384;53.600;10.040;2023-04-03T01:05:48;4.93;;;1.63;;
74042;SDS011;62384;53.600;10.040;2023-04-03T01:08:13;2.67;;;1.42;;
74042;SDS011;62384;53.600;10.040;2023-04-03T01:10:39;9.18;;;1.90;;
74042;SDS011;62384;53.600;10.040;2023-04-03T01:13:17;6.60;;;1.63;;
74042;SDS011;62384;53.600;10.040;2023-04-03T01:15:54;7.50;;;1.60;;
74042;SDS011;62384;53.600;10.040;2023-04-03T01:18:21;9.65;;;1.83;;
74042;SDS011;62384;53.600;10.040;2023-04-03T01:26:20;2.85;;;1.23;;
74042;SDS011;62384;53.600;10.040;2023-04-03T01:34:55;2.83;;;1.52;;
74042;SDS011;62384;53.600;10.040;2023-04-03T01:37:20;3.20;;;1.27;;
74042;SDS011;62384;53.600;10.040;2023-04-03T01:39:45;5.60;;;1.48;;
74042;SDS011;62384;53.600;10.040;2023-04-03T01:42:11;6.60;;;2.33;;
74042;SDS011;62384;53.600;10.040;2023-04-03T01:44:37;7.55;;;1.67;;
74042;SDS011;62384;53.600;10.040;2023-04-03T01:47:04;2.90;;;1.58;;
74042;SDS011;62384;53.600;10.040;2023-04-03T01:49:32;4.38;;;1.67;;
74042;SDS011;62384;53.600;10.040;2023-04-03T01:51:57;5.85;;;1.80;;
74042;SDS011;62384;53.600;10.040;2023-04-03T01:54:22;4.65;;;1.30;;
74042;SDS011;62384;53.600;10.040;2023-04-03T01:56:47;7.22;;;1.70;;
74042;SDS011;62384;53.600;10.040;2023-04-03T01:59:13;7.43;;;1.50;;
74042;SDS011;62384;53.600;10.040;2023-04-03T02:01:38;7.45;;;1.67;;
74042;SDS011;62384;53.600;10.040;2023-04-03T02:04:03;6.10;;;1.75;;
74042;SDS011;62384;53.600;10.040;2023-04-03T02:06:28;7.20;;;1.85;;
74042;SDS011;62384;53.600;10.040;2023-04-03T02:08:54;11.60;;;1.95;;
74042;SDS011;62384;53.600;10.040;2023-04-03T02:11:19;5.47;;;1.73;;
74042;SDS011;62384;53.600;10.040;2023-04-03T02:13:45;7.35;;;1.67;;
74042;SDS011;62384;53.600;10.040;2023-04-03T02:16:10;7.28;;;1.70;;
74042;SDS011;62384;53.600;10.040;2023-04-03T02:18:37;4.18;;;1.65;;
74042;SDS011;62384;53.600;10.040;2023-04-03T02:21:03;4.53;;;1.70;;
74042;SDS011;62384;53.600;10.040;2023-04-03T02:23:28;7.25;;;1.48;;
74042;SDS011;62384;53.600;10.040;2023-04-03T02:26:01;4.22;;;2.35;;
74042;SDS011;62384;53.600;10.040;2023-04-03T02:28:34;3.23;;;1.70;;
74042;SDS011;62384;53.600;10.040;2023-04-03T02:31:00;4.18;;;1.13;;
74042;SDS011;62384;53.600;10.040;2023-04-03T02:33:26;7.00;;;2.25;;
74042;SDS011;62384;53.600;10.040;2023-04-03T02:35:54;3.80;;;1.45;;
74042;SDS011;62384;53.600;10.040;2023-04-03T02:38:21;4.68;;;1.75;;
74042;SDS011;62384;53.600;10.040;2023-04-03T02:40:49;3.83;;;1.20;;
74042;SDS011;62384;53.600;10.040;2023-04-03T02:43:15;4.60;;;1.42;;
74042;SDS011;62384;53.600;10.040;2023-04-03T02:45:41;8.65;;;1.67;;
74042;SDS011;62384;53.600;10.040;2023-04-03T02:48:06;3.55;;;1.50;;
74042;SDS011;62384;53.600;10.040;2023-04-03T02:50:32;8.63;;;1.38;;
74042;SDS011;62384;53.600;10.040;2023-04-03T02:52:57;2.95;;;1.30;;
74042;SDS011;62384;53.600;10.040;2023-04-03T02:55:23;5.80;;;1.48;;
74042;SDS011;62384;53.600;10.040;2023-04-03T02:57:48;4.50;;;1.83;;
74042;SDS011;62384;53.600;10.040;2023-04-03T03:00:13;2.67;;;1.50;;
74042;SDS011;62384;53.600;10.040;2023-04-03T03:02:39;7.30;;;1.80;;
74042;SDS011;62384;53.600;10.040;2023-04-03T03:05:04;8.55;;;1.80;;
74042;SDS011;62384;53.600;10.040;2023-04-03T03:07:30;5.63;;;1.23;;
74042;SDS011;62384;53.600;10.040;2023-04-03T03:09:56;8.93;;;1.65;;
74042;SDS011;62384;53.600;10.040;2023-04-03T03:12:21;6.82;;;1.20;;
74042;SDS011;62384;53.600;10.040;2023-04-03T03:14:48;8.20;;;3.00;;
74042;SDS011;62384;53.600;10.040;2023-04-03T03:17:13;4.10;;;1.42;;
74042;SDS011;62384;53.600;10.040;2023-04-03T03:19:39;3.15;;;1.13;;
74042;SDS011;62384;53.600;10.040;2023-04-03T03:22:04;6.70;;;1.38;;
74042;SDS011;62384;53.600;10.040;2023-04-03T03:24:29;4.72;;;1.27;;
74042;SDS011;62384;53.600;10.040;2023-04-03T03:26:55;6.50;;;1.50;;
74042;SDS011;62384;53.600;10.040;2023-04-03T03:29:20;3.88;;;1.50;;
74042;SDS011;62384;53.600;10.040;2023-04-03T03:31:46;8.10;;;1.65;;
74042;SDS011;62384;53.600;10.040;2023-04-03T03:34:11;9.05;;;2.00;;
74042;SDS011;62384;53.600;10.040;2023-04-03T03:36:37;3.03;;;1.60;;
74042;SDS011;62384;53.600;10.040;2023-04-03T03:39:02;4.93;;;1.35;;
74042;SDS011;62384;53.600;10.040;2023-04-03T03:41:28;2.15;;;1.27;;
74042;SDS011;62384;53.600;10.040;2023-04-03T03:43:53;12.30;;;1.80;;
74042;SDS011;62384;53.600;10.040;2023-04-03T03:46:18;4.60;;;1.23;;
74042;SDS011;62384;53.600;10.040;2023-04-03T03:48:44;5.15;;;2.58;;
74042;SDS011;62384;53.600;10.040;2023-04-03T03:51:09;4.45;;;1.17;;
74042;SDS011;62384;53.600;10.040;2023-04-03T03:53:38;4.40;;;1.30;;
74042;SDS011;62384;53.600;10.040;2023-04-03T03:56:08;8.80;;;1.60;;
74042;SDS011;62384;53.600;10.040;2023-04-03T03:58:33;2.20;;;1.05;;
74042;SDS011;62384;53.600;10.040;2023-04-03T04:01:02;5.07;;;2.15;;
74042;SDS011;62384;53.600;10.040;2023-04-03T04:03:28;4.18;;;1.40;;
74042;SDS011;62384;53.600;10.040;2023-04-03T04:05:54;3.10;;;1.48;;
74042;SDS011;62384;53.600;10.040;2023-04-03T04:08:20;8.77;;;1.73;;
74042;SDS011;62384;53.600;10.040;2023-04-03T04:10:45;5.05;;;1.50;;
74042;SDS011;62384;53.600;10.040;2023-04-03T04:13:11;3.58;;;1.40;;
74042;SDS011;62384;53.600;10.040;2023-04-03T04:15:36;6.22;;;1.50;;
74042;SDS011;62384;53.600;10.040;2023-04-03T04:18:01;6.40;;;1.67;;
74042;SDS011;62384;53.600;10.040;2023-04-03T04:20:27;3.70;;;1.52;;
74042;SDS011;62384;53.600;10.040;2023-04-03T04:22:52;5.05;;;1.50;;
74042;SDS011;62384;53.600;10.040;2023-04-03T04:25:17;6.47;;;1.70;;
74042;SDS011;62384;53.600;10.040;2023-04-03T04:27:42;4.43;;;1.67;;
74042;SDS011;62384;53.600;10.040;2023-04-03T04:30:08;6.30;;;1.80;;
74042;SDS011;62384;53.600;10.040;2023-04-03T04:32:34;4.78;;;1.98;;
74042;SDS011;62384;53.600;10.040;2023-04-03T04:35:00;3.33;;;1.42;;
74042;SDS011;62384;53.600;10.040;2023-04-03T04:37:26;7.03;;;1.55;;
74042;SDS011;62384;53.600;10.040;2023-04-03T04:39:51;4.25;;;1.67;;
74042;SDS011;62384;53.600;10.040;2023-04-03T04:42:16;5.38;;;1.98;;
74042;SDS011;62384;53.600;10.040;2023-04-03T04:44:41;5.50;;;1.90;;
74042;SDS011;62384;53.600;10.040;2023-04-03T04:47:07;2.08;;;1.40;;
74042;SDS011;62384;53.600;10.040;2023-04-03T04:49:32;4.78;;;1.60;;
74042;SDS011;62384;53.600;10.040;2023-04-03T04:51:57;5.20;;;1.58;;
74042;SDS011;62384;53.600;10.040;2023-04-03T04:54:23;4.55;;;1.67;;
74042;SDS011;62384;53.600;10.040;2023-04-03T04:56:48;3.65;;;1.85;;
74042;SDS011;62384;53.600;10.040;2023-04-03T04:59:13;8.57;;;1.80;;
74042;SDS011;62384;53.600;10.040;2023-04-03T05:01:39;13.95;;;3.35;;
74042;SDS011;62384;53.600;10.040;2023-04-03T05:04:04;4.55;;;1.67;;
74042;SDS011;62384;53.600;10.040;2023-04-03T05:06:30;4.13;;;1.50;;
74042;SDS011;62384;53.600;10.040;2023-04-03T05:08:56;5.90;;;1.77;;
74042;SDS011;62384;53.600;10.040;2023-04-03T05:11:22;7.57;;;2.72;;
74042;SDS011;62384;53.600;10.040;2023-04-03T05:13:48;4.60;;;1.77;;
74042;SDS011;62384;53.600;10.040;2023-04-03T05:16:13;5.25;;;1.73;;
74042;SDS011;62384;53.600;10.040;2023-04-03T05:18:40;6.75;;;2.28;;
74042;SDS011;62384;53.600;10.040;2023-04-03T05:21:05;7.20;;;2.90;;
74042;SDS011;62384;53.600;10.040;2023-04-03T05:23:30;7.38;;;2.40;;
74042;SDS011;62384;53.600;10.040;2023-04-03T05:25:56;4.72;;;2.20;;
74042;SDS011;62384;53.600;10.040;2023-04-03T05:28:21;5.30;;;1.90;;
74042;SDS011;62384;53.600;10.040;2023-04-03T05:30:52;5.03;;;1.95;;
74042;SDS011;62384;53.600;10.040;2023-04-03T05:33:21;3.55;;;1.60;;
74042;SDS011;62384;53.600;10.040;2023-04-03T05:35:47;6.80;;;1.80;;
74042;SDS011;62384;53.600;10.040;2023-04-03T05:38:12;4.28;;;1.67;;
74042;SDS011;62384;53.600;10.040;2023-04-03T05:40:37;4.88;;;1.83;;
74042;SDS011;62384;53.600;10.040;2023-04-03T05:43:03;10.35;;;2.25;;
74042;SDS011;62384;53.600;10.040;2023-04-03T05:45:28;4.75;;;1.83;;
74042;SDS011;62384;53.600;10.040;2023-04-03T05:47:53;5.20;;;1.75;;
74042;SDS011;62384;53.600;10.040;2023-04-03T05:50:19;6.22;;;2.53;;
74042;SDS011;62384;53.600;10.040;2023-04-03T05:52:45;6.10;;;1.52;;
74042;SDS011;62384;53.600;10.040;2023-04-03T05:55:13;4.70;;;1.48;;
74042;SDS011;62384;53.600;10.040;2023-04-03T05:57:39;6.78;;;1.80;;
74042;SDS011;62384;53.600;10.040;2023-04-03T06:00:05;5.90;;;1.80;;
74042;SDS011;62384;53.600;10.040;2023-04-03T06:02:31;1.60;;;1.20;;
74042;SDS011;62384;53.600;10.040;2023-04-03T06:04:57;4.75;;;2.05;;
74042;SDS011;62384;53.600;10.040;2023-04-03T06:07:23;6.95;;;2.00;;
74042;SDS011;62384;53.600;10.040;2023-04-03T06:09:52;6.93;;;1.67;;
74042;SDS011;62384;53.600;10.040;2023-04-03T06:12:17;3.63;;;1.80;;
74042;SDS011;62384;53.600;10.040;2023-04-03T06:14:43;2.78;;;1.30;;
74042;SDS011;62384;53.600;10.040;2023-04-03T06:17:08;4.28;;;1.60;;
74042;SDS011;62384;53.600;10.040;2023-04-03T06:19:34;5.22;;;1.92;;
74042;SDS011;62384;53.600;10.040;2023-04-03T06:22:00;5.68;;;1.92;;
74042;SDS011;62384;53.600;10.040;2023-04-03T06:24:26;5.60;;;2.08;;
74042;SDS011;62384;53.600;10.040;2023-04-03T06:26:52;3.85;;;1.45;;
74042;SDS011;62384;53.600;10.040;2023-04-03T06:29:18;8.00;;;1.98;;
74042;SDS011;62384;53.600;10.040;2023-04-03T06:31:44;7.93;;;1.80;;
74042;SDS011;62384;53.600;10.040;2023-04-03T06:34:09;6.20;;;2.28;;
74042;SDS011;62384;53.600;10.040;2023-04-03T06:36:35;4.65;;;2.28;;
74042;SDS011;62384;53.600;10.040;2023-04-03T06:39:01;9.05;;;2.00;;
74042;SDS011;62384;53.600;10.040;2023-04-03T06:41:27;2.10;;;1.10;;
74042;SDS011;62384;53.600;10.040;2023-04-03T06:43:53;6.13;;;1.70;;
74042;SDS011;62384;53.600;10.040;2023-04-03T06:46:19;5.55;;;1.70;;
74042;SDS011;62384;53.600;10.040;2023-04-03T06:48:47;5.22;;;1.55;;
74042;SDS011;62384;53.600;10.040;2023-04-03T06:51:27;2.72;;;1.80;;
74042;SDS011;62384;53.600;10.040;2023-04-03T06:53:56;4.00;;;1.48;;
74042;SDS011;62384;53.600;10.040;2023-04-03T06:56:23;9.88;;;2.10;;
74042;SDS011;62384;53.600;10.040;2023-04-03T06:58:50;3.92;;;1.30;;
74042;SDS011;62384;53.600;10.040;2023-04-03T07:01:16;2.63;;;1.30;;
74042;SDS011;62384;53.600;10.040;2023-04-03T07:03:44;6.57;;;1.20;;
74042;SDS011;62384;53.600;10.040;2023-04-03T07:06:11;5.82;;;1.58;;
74042;SDS011;62384;53.600;10.040;2023-04-03T07:08:37;2.10;;;1.17;;
74042;SDS011;62384;53.600;10.040;2023-04-03T07:11:03;1.85;;;1.10;;
74042;SDS011;62384;53.600;10.040;2023-04-03T07:13:30;5.13;;;0.90;;
74042;SDS011;62384;53.600;10.040;2023-04-03T07:15:55;3.05;;;1.20;;
74042;SDS011;62384;53.600;10.040;2023-04-03T07:18:21;2.40;;;1.02;;
74042;SDS011;62384;53.600;10.040;2023-04-03T07:20:47;2.05;;;0.88;;
74042;SDS011;62384;53.600;10.040;2023-04-03T07:23:13;6.22;;;1.27;;
74042;SDS011;62384;53.600;10.040;2023-04-03T07:28:16;2.40;;;1.13;;
74042;SDS011;62384;53.600;10.040;2023-04-03T07:30:45;3.17;;;0.70;;
74042;SDS011;62384;53.600;10.040;2023-04-03T07:33:12;5.40;;;0.85;;
74042;SDS011;62384;53.600;10.040;2023-04-03T07:35:39;2.97;;;0.63;;
74042;SDS011;62384;53.600;10.040;2023-04-03T07:38:04;3.28;;;0.85;;
74042;SDS011;62384;53.600;10.040;2023-04-03T07:40:30;4.60;;;1.27;;
74042;SDS011;62384;53.600;10.040;2023-04-03T07:42:56;3.80;;;0.90;;
74042;SDS011;62384;53.600;10.040;2023-04-03T07:45:21;3.63;;;1.90;;
74042;SDS011;62384;53.600;10.040;2023-04-03T07:47:48;2.80;;;0.80;;
74042;SDS011;62384;53.600;10.040;2023-04-03T07:50:13;4.85;;;0.90;;
74042;SDS011;62384;53.600;10.040;2023-04-03T07:52:39;4.93;;;0.70;;
74042;SDS011;62384;53.600;10.040;2023-04-03T07:55:05;2.25;;;0.80;;
74042;SDS011;62384;53.600;10.040;2023-04-03T07:57:31;0.70;;;0.68;;
74042;SDS011;62384;53.600;10.040;2023-04-03T07:59:56;4.03;;;0.70;;
74042;SDS011;62384;53.600;10.040;2023-04-03T08:02:22;5.55;;;0.70;;
74042;SDS011;62384;53.600;10.040;2023-04-03T08:04:47;4.68;;;1.23;;
74042;SDS011;62384;53.600;10.040;2023-04-03T08:07:12;1.52;;;0.77;;
74042;SDS011;62384;53.600;10.040;2023-04-03T08:09:38;1.13;;;0.77;;
74042;SDS011;62384;53.600;10.040;2023-04-03T08:12:03;1.95;;;0.50;;
74042;SDS011;62384;53.600;10.040;2023-04-03T08:14:30;5.82;;;1.30;;
74042;SDS011;62384;53.600;10.040;2023-04-03T08:16:59;5.10;;;0.73;;
74042;SDS011;62384;53.600;10.040;2023-04-03T08:19:25;2.95;;;1.00;;
74042;SDS011;62384;53.600;10.040;2023-04-03T08:21:51;4.63;;;0.90;;
74042;SDS011;62384;53.600;10.040;2023-04-03T08:24:17;1.83;;;0.70;;
74042;SDS011;62384;53.600;10.040;2023-04-03T08:26:43;2.28;;;0.60;;
74042;SDS011;62384;53.600;10.040;2023-04-03T08:29:08;3.58;;;0.73;;
74042;SDS011;62384;53.600;10.040;2023-04-03T08:31:33;5.57;;;0.70;;
74042;SDS011;62384;53.600;10.040;2023-04-03T08:33:58;2.75;;;0.73;;
74042;SDS011;62384;53.600;10.040;2023-04-03T08:36:25;2.30;;;0.60;;
74042;SDS011;62384;53.600;10.040;2023-04-03T08:38:52;2.97;;;0.60;;
74042;SDS011;62384;53.600;10.040;2023-04-03T08:41:29;2.38;;;0.60;;
74042;SDS011;62384;53.600;10.040;2023-04-03T08:49:26;3.53;;;1.08;;
74042;SDS011;62384;53.600;10.040;2023-04-03T08:51:56;2.83;;;0.43;;
74042;SDS011;62384;53.600;10.040;2023-04-03T08:54:24;3.60;;;1.00;;
74042;SDS011;62384;53.600;10.040;2023-04-03T08:56:55;1.63;;;0.50;;
74042;SDS011;62384;53.600;10.040;2023-04-03T08:59:28;3.42;;;0.90;;
74042;SDS011;62384;53.600;10.040;2023-04-03T09:01:56;1.85;;;0.55;;
74042;SDS011;62384;53.600;10.040;2023-04-03T09:04:23;4.60;;;0.40;;
74042;SDS011;62384;53.600;10.040;2023-04-03T09:06:53;3.72;;;0.88;;
74042;SDS011;62384;53.600;10.040;2023-04-03T09:09:33;2.65;;;0.40;;
74042;SDS011;62384;53.600;10.040;2023-04-03T09:15:20;4.57;;;0.70;;
74042;SDS011;62384;53.600;10.040;2023-04-03T09:20:31;3.47;;;0.80;;
74042;SDS011;62384;53.600;10.040;2023-04-03T09:23:10;1.80;;;0.80;;
74042;SDS011;62384;53.600;10.040;2023-04-03T09:25:42;1.55;;;0.40;;
74042;SDS011;62384;53.600;10.040;2023-04-03T09:28:08;3.88;;;0.80;;
74042;SDS011;62384;53.600;10.040;2023-04-03T09:30:35;1.35;;;0.60;;
74042;SDS011;62384;53.600;10.040;2023-04-03T09:33:02;3.03;;;0.60;;
74042;SDS011;62384;53.600;10.040;2023-04-03T09:38:00;3.50;;;1.40;;
74042;SDS011;62384;53.600;10.040;2023-04-03T09:40:42;3.78;;;0.50;;
74042;SDS011;62384;53.600;10.040;2023-04-03T09:45:42;0.70;;;0.40;;
74042;SDS011;62384;53.600;10.040;2023-04-03T09:48:15;1.05;;;0.47;;
74042;SDS011;62384;53.600;10.040;2023-04-03T09:55:56;1.25;;;0.52;;
74042;SDS011;62384;53.600;10.040;2023-04-03T10:03:33;1.98;;;0.38;;
74042;SDS011;62384;53.600;10.040;2023-04-03T10:06:00;2.60;;;0.40;;
74042;SDS011;62384;53.600;10.040;2023-04-03T10:11:07;0.90;;;0.50;;
74042;SDS011;62384;53.600;10.040;2023-04-03T10:13:51;5.85;;;0.80;;
74042;SDS011;62384;53.600;10.040;2023-04-03T10:16:54;2.72;;;0.40;;
74042;SDS011;62384;53.600;10.040;2023-04-03T10:27:18;1.73;;;0.40;;
74042;SDS011;62384;53.600;10.040;2023-04-03T10:40:59;1.60;;;0.30;;
74042;SDS011;62384;53.600;10.040;2023-04-03T10:46:20;3.55;;;0.45;;
74042;SDS011;62384;53.600;10.040;2023-04-03T10:49:01;1.67;;;0.50;;
74042;SDS011;62384;53.600;10.040;2023-04-03T10:51:48;0.57;;;0.40;;
74042;SDS011;62384;53.600;10.040;2023-04-03T10:56:45;1.50;;;0.65;;
74042;SDS011;62384;53.600;10.040;2023-04-03T10:59:23;2.15;;;0.40;;
74042;SDS011;62384;53.600;10.040;2023-04-03T11:01:55;4.90;;;0.70;;
74042;SDS011;62384;53.600;10.040;2023-04-03T11:04:24;2.90;;;0.50;;
74042;SDS011;62384;53.600;10.040;2023-04-03T11:06:56;0.60;;;0.30;;
74042;SDS011;62384;53.600;10.040;2023-04-03T11:09:35;3.05;;;0.60;;
74042;SDS011;62384;53.600;10.040;2023-04-03T11:12:06;1.42;;;0.40;;
74042;SDS011;62384;53.600;10.040;2023-04-03T11:14:35;1.63;;;0.60;;
74042;SDS011;62384;53.600;10.040;2023-04-03T11:17:15;2.25;;;0.57;;
74042;SDS011;62384;53.600;10.040;2023-04-03T11:22:21;2.42;;;0.68;;
74042;SDS011;62384;53.600;10.040;2023-04-03T11:25:22;4.68;;;0.70;;
74042;SDS011;62384;53.600;10.040;2023-04-03T11:28:04;2.53;;;0.65;;
74042;SDS011;62384;53.600;10.040;2023-04-03T11:35:48;4.78;;;0.60;;
74042;SDS011;62384;53.600;10.040;2023-04-03T11:38:21;1.88;;;0.50;;
74042;SDS011;62384;53.600;10.040;2023-04-03T11:40:59;2.78;;;0.90;;
74042;SDS011;62384;53.600;10.040;2023-04-03T11:43:27;1.05;;;0.68;;
74042;SDS011;62384;53.600;10.040;2023-04-03T11:51:02;1.25;;;0.50;;
74042;SDS011;62384;53.600;10.040;2023-04-03T11:54:34;1.02;;;0.28;;
74042;SDS011;62384;53.600;10.040;2023-04-03T11:57:22;3.13;;;0.57;;
74042;SDS011;62384;53.600;10.040;2023-04-03T12:05:51;6.70;;;0.80;;
74042;SDS011;62384;53.600;10.040;2023-04-03T12:08:29;1.60;;;0.52;;
74042;SDS011;62384;53.600;10.040;2023-04-03T12:19:00;1.27;;;0.47;;
74042;SDS011;62384;53.600;10.040;2023-04-03T12:23:59;1.70;;;0.40;;
74042;SDS011;62384;53.600;10.040;2023-04-03T12:31:55;1.23;;;0.60;;
74042;SDS011;62384;53.600;10.040;2023-04-03T12:37:40;4.60;;;0.93;;
74042;SDS011;62384;53.600;10.040;2023-04-03T12:43:07;3.95;;;1.00;;
74042;SDS011;62384;53.600;10.040;2023-04-03T12:45:40;2.30;;;1.08;;
74042;SDS011;62384;53.600;10.040;2023-04-03T12:48:06;3.28;;;0.75;;
74042;SDS011;62384;53.600;10.040;2023-04-03T12:50:38;2.38;;;0.65;;
74042;SDS011;62384;53.600;10.040;2023-04-03T12:53:10;2.70;;;0.63;;
74042;SDS011;62384;53.600;10.040;2023-04-03T12:55:38;2.83;;;0.68;;
74042;SDS011;62384;53.600;10.040;2023-04-03T12:58:15;1.70;;;0.40;;
74042;SDS011;62384;53.600;10.040;2023-04-03T13:00:43;0.65;;;0.40;;
74042;SDS011;62384;53.600;10.040;2023-04-03T13:03:39;2.40;;;0.20;;
74042;SDS011;62384;53.600;10.040;2023-04-03T13:05:59;3.15;;;0.40;;
74042;SDS011;62384;53.600;10.040;2023-04-03T13:08:26;2.28;;;0.82;;
74042;SDS011;62384;53.600;10.040;2023-04-03T13:11:02;2.28;;;0.47;;
74042;SDS011;62384;53.600;10.040;2023-04-03T13:13:31;1.77;;;0.90;;
74042;SDS011;62384;53.600;10.040;2023-04-03T13:15:56;4.50;;;0.70;;
74042;SDS011;62384;53.600;10.040;2023-04-03T13:18:33;4.63;;;0.60;;
74042;SDS011;62384;53.600;10.040;2023-04-03T13:21:04;1.35;;;0.30;;
74042;SDS011;62384;53.600;10.040;2023-04-03T13:23:32;2.35;;;0.50;;
74042;SDS011;62384;53.600;10.040;2023-04-03T13:26:02;3.22;;;0.40;;
74042;SDS011;62384;53.600;10.040;2023-04-03T13:28:28;2.97;;;0.70;;
74042;SDS011;62384;53.600;10.040;2023-04-03T13:33:27;2.72;;;0.60;;
74042;SDS011;62384;53.600;10.040;2023-04-03T13:35:58;1.88;;;0.47;;
74042;SDS011;62384;53.600;10.040;2023-04-03T13:38:29;5.07;;;0.57;;
74042;SDS011;62384;53.600;10.040;2023-04-03T13:40:58;1.58;;;0.40;;
74042;SDS011;62384;53.600;10.040;2023-04-03T13:43:28;1.27;;;0.30;;
74042;SDS011;62384;53.600;10.040;2023-04-03T13:46:00;2.40;;;0.50;;
74042;SDS011;62384;53.600;10.040;2023-04-03T13:48:35;1.30;;;0.35;;
74042;SDS011;62384;53.600;10.040;2023-04-03T13:51:03;2.67;;;0.50;;
74042;SDS011;62384;53.600;10.040;2023-04-03T13:53:33;0.77;;;0.30;;
74042;SDS011;62384;53.600;10.040;2023-04-03T13:56:08;0.57;;;0.32;;
74042;SDS011;62384;53.600;10.040;2023-04-03T13:58:51;0.77;;;0.57;;
74042;SDS011;62384;53.600;10.040;2023-04-03T14:01:20;1.35;;;0.30;;
74042;SDS011;62384;53.600;10.040;2023-04-03T14:03:52;2.47;;;0.77;;
74042;SDS011;62384;53.600;10.040;2023-04-03T14:06:21;0.50;;;0.50;;
74042;SDS011;62384;53.600;10.040;2023-04-03T14:08:47;2.88;;;0.50;;
74042;SDS011;62384;53.600;10.040;2023-04-03T14:11:15;3.08;;;0.57;;
74042;SDS011;62384;53.600;10.040;2023-04-03T14:13:44;2.40;;;0.55;;
74042;SDS011;62384;53.600;10.040;2023-04-03T14:16:19;2.75;;;0.40;;
74042;SDS011;62384;53.600;10.040;2023-04-03T14:18:49;2.38;;;0.65;;
74042;SDS011;62384;53.600;10.040;2023-04-03T14:21:17;1.52;;;0.60;;
74042;SDS011;62384;53.600;10.040;2023-04-03T14:23:43;1.75;;;0.30;;
74042;SDS011;62384;53.600;10.040;2023-04-03T14:26:14;1.35;;;0.43;;
74042;SDS011;62384;53.600;10.040;2023-04-03T14:28:46;2.45;;;0.50;;
74042;SDS011;62384;53.600;10.040;2023-04-03T14:31:13;1.58;;;0.68;;
74042;SDS011;62384;53.600;10.040;2023-04-03T14:33:39;1.45;;;0.50;;
74042;SDS011;62384;53.600;10.040;2023-04-03T14:36:10;2.25;;;0.63;;
74042;SDS011;62384;53.600;10.040;2023-04-03T14:38:38;2.67;;;0.60;;
74042;SDS011;62384;53.600;10.040;2023-04-03T14:41:04;1.83;;;0.35;;
74042;SDS011;62384;53.600;10.040;2023-04-03T14:43:29;1.05;;;0.50;;
74042;SDS011;62384;53.600;10.040;2023-04-03T14:45:55;3.63;;;0.45;;
74042;SDS011;62384;53.600;10.040;2023-04-03T14:48:23;6.28;;;0.50;;
74042;SDS011;62384;53.600;10.040;2023-04-03T14:50:50;2.40;;;0.50;;
74042;SDS011;62384;53.600;10.040;2023-04-03T14:53:17;4.70;;;0.60;;
74042;SDS011;62384;53.600;10.040;2023-04-03T14:55:48;1.85;;;0.60;;
74042;SDS011;62384;53.600;10.040;2023-04-03T14:58:15;2.20;;;0.60;;
74042;SDS011;62384;53.600;10.040;2023-04-03T15:00:42;1.15;;;0.70;;
74042;SDS011;62384;53.600;10.040;2023-04-03T15:03:19;4.03;;;0.50;;
74042;SDS011;62384;53.600;10.040;2023-04-03T15:05:46;1.42;;;0.65;;
74042;SDS011;62384;53.600;10.040;2023-04-03T15:08:19;3.42;;;0.52;;
74042;SDS011;62384;53.600;10.040;2023-04-03T15:10:54;3.28;;;0.60;;
74042;SDS011;62384;53.600;10.040;2023-04-03T15:13:21;6.63;;;0.65;;
74042;SDS011;62384;53.600;10.040;2023-04-03T15:15:47;1.00;;;0.50;;
74042;SDS011;62384;53.600;10.040;2023-04-03T15:18:16;1.75;;;0.77;;
74042;SDS011;62384;53.600;10.040;2023-04-03T15:20:45;2.03;;;0.60;;
74042;SDS011;62384;53.600;10.040;2023-04-03T15:23:15;0.93;;;0.40;;
74042;SDS011;62384;53.600;10.040;2023-04-03T15:25:42;1.50;;;0.40;;
74042;SDS011;62384;53.600;10.040;2023-04-03T15:28:32;2.40;;;0.60;;
74042;SDS011;62384;53.600;10.040;2023-04-03T15:30:58;3.70;;;0.90;;
74042;SDS011;62384;53.600;10.040;2023-04-03T15:33:24;4.65;;;1.08;;
74042;SDS011;62384;53.600;10.040;2023-04-03T15:35:50;3.38;;;1.08;;
74042;SDS011;62384;53.600;10.040;2023-04-03T15:38:16;1.00;;;0.50;;
74042;SDS011;62384;53.600;10.040;2023-04-03T15:40:49;2.13;;;0.57;;
74042;SDS011;62384;53.600;10.040;2023-04-03T15:43:16;1.63;;;0.40;;
74042;SDS011;62384;53.600;10.040;2023-04-03T15:45:44;5.55;;;0.98;;
74042;SDS011;62384;53.600;10.040;2023-04-03T15:48:10;0.90;;;0.50;;
74042;SDS011;62384;53.600;10.040;2023-04-03T15:50:35;1.58;;;0.65;;
74042;SDS011;62384;53.600;10.040;2023-04-03T15:53:01;2.72;;;0.60;;
74042;SDS011;62384;53.600;10.040;2023-04-03T15:55:28;0.77;;;0.40;;
74042;SDS011;62384;53.600;10.040;2023-04-03T15:57:55;3.10;;;1.02;;
74042;SDS011;62384;53.600;10.040;2023-04-03T16:00:21;0.95;;;0.43;;
74042;SDS011;62384;53.600;10.040;2023-04-03T16:02:48;1.80;;;0.50;;
74042;SDS011;62384;53.600;10.040;2023-04-03T16:05:17;2.47;;;0.70;;
74042;SDS011;62384;53.600;10.040;2023-04-03T16:07:43;1.88;;;1.00;;
74042;SDS011;62384;53.600;10.040;2023-04-03T16:10:10;2.35;;;0.77;;
74042;SDS011;62384;53.600;10.040;2023-04-03T16:12:37;1.42;;;0.70;;
74042;SDS011;62384;53.600;10.040;2023-04-03T16:15:11;3.50;;;0.65;;
74042;SDS011;62384;53.600;10.040;2023-04-03T16:17:37;1.13;;;0.38;;
74042;SDS011;62384;53.600;10.040;2023-04-03T16:20:06;1.13;;;0.82;;
74042;SDS011;62384;53.600;10.040;2023-04-03T16:22:34;2.45;;;0.90;;
74042;SDS011;62384;53.600;10.040;2023-04-03T16:25:00;3.47;;;0.90;;
74042;SDS011;62384;53.600;10.040;2023-04-03T16:27:25;1.25;;;0.55;;
74042;SDS011;62384;53.600;10.040;2023-04-03T16:30:01;3.40;;;0.70;;
74042;SDS011;62384;53.600;10.040;2023-04-03T16:32:39;2.10;;;0.57;;